Time;durP1;ratioP1;P1;durP2;ratioP2;P2;SDS_P1;SDS_P2;PMS_P1;PMS_P2;Temp;Humidity;BMP_temperature;BMP_pressure;BME280_temperature;BME280_humidity;BME280_pressure;Samples;Min_cycle;Max_cycle;Signal;HPM_P1;HPM_P2
2022/04/16 00:02:38;;;;;;;23.33;17.97;;;;;8.20;102431.00;;;;10547034;28;20211;-79
2022/04/16 00:07:41;;;;;;;22.30;18.63;;;;;8.10;102428.00;;;;10585640;27;20232;-78
2022/04/16 00:12:43;;;;;;;25.10;18.13;;;;;8.00;102421.00;;;;10622794;27;20198;-78
2022/04/16 00:17:44;;;;;;;21.93;17.57;;;;;7.90;102419.00;;;;10572585;27;20199;-78
2022/04/16 00:22:46;;;;;;;22.97;18.07;;;;;7.80;102429.00;;;;10572315;27;20210;-78
2022/04/16 00:27:49;;;;;;;24.47;19.43;;;;;7.70;102431.00;;;;10571719;27;20184;-78
2022/04/16 00:32:55;;;;;;;23.57;19.07;;;;;7.70;102435.00;;;;10572269;27;20222;-78
2022/04/16 00:37:57;;;;;;;23.87;19.13;;;;;7.60;102423.00;;;;10504794;28;20213;-78
2022/04/16 00:43:00;;;;;;;25.13;19.13;;;;;7.50;102426.00;;;;10503095;28;20303;-78
2022/04/16 00:48:04;;;;;;;27.17;19.20;;;;;7.50;102425.00;;;;10514260;28;20226;-78
2022/04/16 00:53:06;;;;;;;27.10;19.33;;;;;7.40;102428.00;;;;10530570;28;20207;-78
2022/04/16 00:58:09;;;;;;;25.83;18.93;;;;;7.30;102433.00;;;;10514142;28;20207;-78
2022/04/16 01:03:11;;;;;;;27.50;20.30;;;;;7.30;102433.00;;;;10513344;28;20579;-78
2022/04/16 01:08:13;;;;;;;26.20;19.73;;;;;7.20;102425.00;;;;10512178;28;20193;-78
2022/04/16 01:13:15;;;;;;;26.07;20.13;;;;;7.20;102425.00;;;;10513527;28;20224;-78
2022/04/16 01:18:17;;;;;;;29.93;20.77;;;;;7.10;102436.00;;;;10529658;28;20195;-78
2022/04/16 01:23:19;;;;;;;27.53;18.83;;;;;7.00;102453.00;;;;10513025;28;20212;-78
2022/04/16 01:28:22;;;;;;;26.97;20.17;;;;;7.00;102443.00;;;;10530533;28;20196;-78
2022/04/16 01:33:24;;;;;;;26.53;19.67;;;;;6.90;102441.00;;;;10563459;28;20246;-78
2022/04/16 01:38:26;;;;;;;26.43;19.43;;;;;6.90;102440.00;;;;10550699;28;20216;-78
2022/04/16 01:43:29;;;;;;;27.50;19.67;;;;;6.80;102453.00;;;;10560827;28;20216;-78
2022/04/16 01:48:31;;;;;;;28.03;21.07;;;;;6.80;102458.00;;;;10554141;28;20207;-78
2022/04/16 01:53:33;;;;;;;27.33;20.33;;;;;6.80;102452.00;;;;10511138;28;20197;-78
2022/04/16 01:58:38;;;;;;;29.47;20.93;;;;;6.80;102451.00;;;;10478768;28;20196;-78
2022/04/16 02:03:39;;;;;;;26.10;18.87;;;;;6.80;102452.00;;;;10498501;28;20247;-78
2022/04/16 02:08:41;;;;;;;27.67;20.53;;;;;6.80;102456.00;;;;10553159;28;20275;-78
2022/04/16 02:13:44;;;;;;;26.57;20.67;;;;;6.80;102460.00;;;;10552457;28;20223;-78
2022/04/16 02:18:46;;;;;;;27.40;19.77;;;;;6.70;102459.00;;;;10518180;28;20204;-78
2022/04/16 02:23:51;;;;;;;32.60;21.20;;;;;6.70;102461.00;;;;10492326;28;20667;-78
2022/04/16 02:28:54;;;;;;;29.93;21.30;;;;;6.60;102460.00;;;;10493000;28;20600;-78
2022/04/16 02:33:56;;;;;;;31.27;22.00;;;;;6.60;102465.00;;;;10509143;28;20189;-78
2022/04/16 02:38:59;;;;;;;31.97;22.73;;;;;6.50;102450.00;;;;10492399;28;20686;-78
2022/04/16 02:44:01;;;;;;;32.60;22.67;;;;;6.50;102459.00;;;;10521140;28;20200;-78
2022/04/16 02:49:04;;;;;;;32.50;22.93;;;;;6.40;102463.00;;;;10511946;28;20270;-78
2022/04/16 02:54:06;;;;;;;32.53;22.60;;;;;6.40;102471.00;;;;10491530;28;20201;-78
2022/04/16 02:59:07;;;;;;;33.60;23.60;;;;;6.40;102468.00;;;;10484461;28;20256;-77
2022/04/16 03:04:09;;;;;;;31.40;23.77;;;;;6.40;102474.00;;;;10474708;28;20556;-78
2022/04/16 03:09:11;;;;;;;33.43;23.47;;;;;6.40;102479.00;;;;10501979;28;20192;-77
2022/04/16 03:19:35;;;;;;;32.83;24.33;;;;;6.30;102477.00;;;;10550201;28;20195;-78
2022/04/16 03:24:36;;;;;;;36.17;25.60;;;;;6.30;102477.00;;;;10566369;27;20214;-78
2022/04/16 03:29:38;;;;;;;37.53;25.97;;;;;6.30;102472.00;;;;10574517;27;20691;-78
2022/04/16 03:34:40;;;;;;;35.67;25.90;;;;;6.20;102485.00;;;;10576248;27;20184;-77
2022/04/16 03:39:44;;;;;;;40.10;25.13;;;;;6.20;102476.00;;;;10527233;28;20219;-78
2022/04/16 03:44:45;;;;;;;39.33;27.17;;;;;6.10;102480.00;;;;10551292;28;20219;-77
2022/04/16 03:49:47;;;;;;;36.03;24.57;;;;;6.10;102488.00;;;;10518416;28;20279;-78
2022/04/16 04:00:11;;;;;;;33.83;24.10;;;;;6.00;102491.00;;;;10548542;28;20198;-77
2022/04/16 04:05:13;;;;;;;36.70;26.43;;;;;5.90;102496.00;;;;10564785;28;20207;-77
2022/04/16 04:10:14;;;;;;;35.03;25.07;;;;;5.90;102492.00;;;;10532015;28;20192;-78
2022/04/16 04:15:16;;;;;;;37.67;26.67;;;;;5.80;102504.00;;;;10521663;28;20201;-78
2022/04/16 04:20:18;;;;;;;37.63;25.43;;;;;5.80;102510.00;;;;10472874;28;20193;-78
2022/04/16 04:25:21;;;;;;;37.83;25.70;;;;;5.70;102512.00;;;;10552501;27;20307;-78
2022/04/16 04:30:23;;;;;;;40.77;28.43;;;;;5.70;102518.00;;;;10572929;27;20294;-77
2022/04/16 04:35:25;;;;;;;42.00;28.10;;;;;5.80;102518.00;;;;10571892;27;20194;-78
2022/04/16 04:40:29;;;;;;;39.77;28.40;;;;;5.80;102516.00;;;;10587967;28;20215;-77
2022/04/16 04:45:30;;;;;;;45.07;28.93;;;;;5.90;102519.00;;;;10570709;28;20248;-78
2022/04/16 04:50:32;;;;;;;41.13;28.63;;;;;5.90;102526.00;;;;10518453;28;20249;-77
2022/04/16 04:55:34;;;;;;;46.90;29.40;;;;;5.90;102527.00;;;;10587319;28;20188;-77
2022/04/16 05:00:36;;;;;;;40.67;28.83;;;;;6.00;102526.00;;;;10519474;28;20874;-77
2022/04/16 05:05:38;;;;;;;42.80;30.73;;;;;6.00;102524.00;;;;10508165;28;20208;-79
2022/04/16 05:10:40;;;;;;;48.30;31.87;;;;;6.20;102526.00;;;;10528052;28;20667;-77
2022/04/16 05:15:42;;;;;;;51.10;32.23;;;;;6.40;102541.00;;;;10510270;28;20643;-78
2022/04/16 05:20:44;;;;;;;44.80;31.87;;;;;6.50;102539.00;;;;10496673;28;20643;-77
2022/04/16 05:25:46;;;;;;;51.63;33.47;;;;;6.70;102551.00;;;;10519640;28;20413;-77
2022/04/16 05:30:54;;;;;;;51.27;33.80;;;;;7.00;102550.00;;;;10530276;28;20189;-77
2022/04/16 05:35:56;;;;;;;47.37;31.23;;;;;7.60;102558.00;;;;10491663;28;20201;-77
2022/04/16 05:40:58;;;;;;;41.63;29.37;;;;;8.10;102551.00;;;;10509203;28;20216;-77
2022/04/16 05:46:02;;;;;;;36.87;27.67;;;;;8.20;102559.00;;;;10491992;28;20311;-77
2022/04/16 05:51:04;;;;;;;39.77;28.03;;;;;8.30;102557.00;;;;10502210;27;20286;-78
2022/04/16 05:56:06;;;;;;;40.10;29.33;;;;;8.40;102560.00;;;;10558590;27;20245;-77
2022/04/16 06:01:09;;;;;;;35.80;28.43;;;;;8.60;102567.00;;;;10524693;28;20200;-78
2022/04/16 06:06:11;;;;;;;41.90;28.23;;;;;8.80;102570.00;;;;10506344;28;20621;-78
2022/04/16 06:11:17;;;;;;;34.77;26.67;;;;;8.90;102570.00;;;;10532990;28;20200;-77
2022/04/16 06:16:18;;;;;;;37.23;29.97;;;;;9.30;102572.00;;;;10533099;28;20287;-77
2022/04/16 06:21:20;;;;;;;34.13;27.00;;;;;9.80;102571.00;;;;10540119;27;20222;-78
2022/04/16 06:26:22;;;;;;;33.13;26.13;;;;;10.20;102572.00;;;;10575445;27;20231;-78
2022/04/16 06:31:24;;;;;;;29.70;24.90;;;;;10.50;102563.00;;;;10580613;27;20210;-78
2022/04/16 06:36:26;;;;;;;30.83;22.83;;;;;10.90;102578.00;;;;10533303;28;20199;-77
2022/04/16 06:41:28;;;;;;;28.00;23.93;;;;;11.20;102575.00;;;;10549207;28;20215;-77
2022/04/16 06:46:30;;;;;;;28.63;22.47;;;;;11.50;102575.00;;;;10532171;28;20200;-77
2022/04/16 06:51:32;;;;;;;27.00;22.53;;;;;11.70;102573.00;;;;10507436;27;20195;-78
2022/04/16 06:56:34;;;;;;;27.60;22.77;;;;;12.10;102571.00;;;;10591715;27;20189;-77
2022/04/16 07:01:37;;;;;;;25.70;22.70;;;;;12.50;102560.00;;;;10590836;27;20283;-78
2022/04/16 07:06:41;;;;;;;24.60;21.27;;;;;12.80;102568.00;;;;10506279;28;20217;-78
2022/04/16 07:11:43;;;;;;;25.47;21.47;;;;;12.80;102570.00;;;;10522810;28;20193;-77
2022/04/16 07:16:45;;;;;;;23.77;21.17;;;;;13.00;102569.00;;;;10506374;28;20185;-78
2022/04/16 07:21:47;;;;;;;21.70;19.27;;;;;13.40;102582.00;;;;10510293;27;20215;-78
2022/04/16 07:26:49;;;;;;;24.17;19.83;;;;;13.70;102579.00;;;;10589779;27;20290;-78
2022/04/16 07:31:51;;;;;;;22.13;19.63;;;;;14.00;102584.00;;;;10571575;27;20184;-77
2022/04/16 07:36:54;;;;;;;20.87;18.47;;;;;14.00;102586.00;;;;10536092;28;20196;-78
2022/04/16 07:41:57;;;;;;;23.03;18.63;;;;;14.40;102587.00;;;;10471975;28;20213;-78
2022/04/16 07:46:59;;;;;;;21.60;19.30;;;;;14.80;102576.00;;;;10489134;28;20716;-77
2022/04/16 07:52:01;;;;;;;19.40;17.30;;;;;15.00;102591.00;;;;10505350;28;20192;-78
2022/04/16 07:57:06;;;;;;;18.87;16.87;;;;;15.20;102584.00;;;;10530319;28;20192;-78
2022/04/16 08:02:08;;;;;;;18.93;16.27;;;;;15.50;102571.00;;;;10546352;28;20200;-79
2022/04/16 08:07:10;;;;;;;21.10;16.27;;;;;15.90;102579.00;;;;10529961;28;20188;-78
2022/04/16 08:12:12;;;;;;;18.27;16.37;;;;;16.40;102585.00;;;;10530271;28;20184;-78
2022/04/16 08:17:14;;;;;;;19.50;15.68;;;;;16.80;102583.00;;;;10546502;28;20187;-78
2022/04/16 08:22:21;;;;;;;17.50;15.70;;;;;17.10;102588.00;;;;10512200;28;20216;-78
2022/04/16 08:27:23;;;;;;;17.02;15.32;;;;;17.60;102582.00;;;;10528849;28;20200;-78
2022/04/16 08:32:25;;;;;;;15.85;14.13;;;;;17.90;102586.00;;;;10528688;28;20222;-78
2022/04/16 08:37:27;;;;;;;14.23;12.80;;;;;18.20;102593.00;;;;10528142;28;20196;-78
2022/04/16 08:42:29;;;;;;;14.75;11.68;;;;;18.40;102591.00;;;;10527833;28;20274;-78
2022/04/16 08:47:32;;;;;;;13.70;12.32;;;;;18.70;102589.00;;;;10516084;28;20200;-78
2022/04/16 08:52:36;;;;;;;13.60;12.23;;;;;18.60;102594.00;;;;10538146;27;20198;-78
2022/04/16 08:57:39;;;;;;;12.38;11.18;;;;;18.80;102600.00;;;;10595723;27;20556;-78
2022/04/16 09:02:53;;;;;;;11.20;10.10;;;;;19.00;102592.00;;;;10578707;27;20218;-77
2022/04/16 09:07:57;;;;;;;12.13;9.90;;;;;19.10;102587.00;;;;10595049;27;20188;-77
2022/04/16 09:13:01;;;;;;;10.20;9.02;;;;;19.10;102589.00;;;;10561945;27;20282;-77
2022/04/16 09:18:05;;;;;;;13.88;11.05;;;;;19.10;102584.00;;;;10544777;27;20246;-77
2022/04/16 09:23:15;;;;;;;12.63;8.32;;;;;19.40;102582.00;;;;10525023;28;20308;-78
2022/04/16 09:28:19;;;;;;;10.15;8.25;;;;;19.40;102569.00;;;;10535448;28;20189;-77
2022/04/16 09:33:21;;;;;;;9.90;8.63;;;;;19.70;102580.00;;;;10529887;28;20181;-77
2022/04/16 09:38:27;;;;;;;10.75;8.23;;;;;19.90;102582.00;;;;10524595;28;20308;-77
2022/04/16 09:43:36;;;;;;;5.28;4.78;;;;;20.00;102586.00;;;;10534093;28;20211;-77
2022/04/16 09:48:39;;;;;;;7.80;7.00;;;;;19.90;102578.00;;;;10551119;28;20200;-77
2022/04/16 09:53:42;;;;;;;8.32;6.15;;;;;20.00;102574.00;;;;10510103;28;20201;-76
2022/04/16 09:58:52;;;;;;;8.65;7.78;;;;;20.30;102569.00;;;;10491537;28;20287;-78
2022/04/16 10:03:55;;;;;;;8.18;7.18;;;;;20.40;102564.00;;;;10508353;28;20203;-77
2022/04/16 10:09:00;;;;;;;9.00;8.07;;;;;19.50;102567.00;;;;10508772;28;20196;-77
2022/04/16 10:14:09;;;;;;;8.45;7.28;;;;;20.00;102565.00;;;;10508214;28;20189;-77
2022/04/16 10:19:16;;;;;;;7.78;6.97;;;;;20.30;102569.00;;;;10492182;28;20202;-76
2022/04/16 10:24:25;;;;;;;7.90;7.10;;;;;20.40;102555.00;;;;10539500;28;20211;-78
2022/04/16 10:29:26;;;;;;;6.70;6.00;;;;;20.80;102550.00;;;;10549625;28;20188;-77
2022/04/16 10:34:30;;;;;;;7.07;6.38;;;;;20.80;102549.00;;;;10515672;28;20280;-78
2022/04/16 10:39:35;;;;;;;7.20;6.50;;;;;20.90;102555.00;;;;10549075;28;20215;-77
2022/04/16 10:44:46;;;;;;;6.60;6.00;;;;;20.90;102542.00;;;;10532062;28;20243;-77
2022/04/16 10:49:47;;;;;;;7.35;6.43;;;;;21.10;102554.00;;;;10548399;28;20196;-78
2022/04/16 10:55:05;;;;;;;6.93;6.22;;;;;21.10;102538.00;;;;10547864;28;20196;-77
2022/04/16 11:00:14;;;;;;;7.50;5.63;;;;;21.20;102528.00;;;;10531242;28;20184;-77
2022/04/16 11:05:45;;;;;;;6.72;6.03;;;;;21.70;102528.00;;;;10533618;28;20262;-78
2022/04/16 11:10:56;;;;;;;9.60;6.60;;;;;22.30;102533.00;;;;10545692;28;20219;-77
2022/04/16 11:16:01;;;;;;;7.88;7.07;;;;;22.30;102529.00;;;;10530395;28;20188;-77
2022/04/16 11:21:13;;;;;;;7.40;6.60;;;;;22.50;102521.00;;;;10542597;28;20280;-77
2022/04/16 11:37:09;;;;;;;9.55;6.88;;;;;22.40;102508.00;;;;10503888;28;20192;-78
2022/04/16 11:42:12;;;;;;;7.20;6.50;;;;;22.40;102509.00;;;;10520736;28;20201;-77
2022/04/16 11:47:17;;;;;;;9.63;7.53;;;;;22.60;102505.00;;;;10503121;28;20200;-78
2022/04/16 11:52:27;;;;;;;7.75;7.05;;;;;22.70;102507.00;;;;10552373;27;20191;-77
2022/04/16 11:57:29;;;;;;;8.65;7.18;;;;;22.50;102505.00;;;;10587959;27;20196;-77
2022/04/16 12:02:33;;;;;;;8.10;7.40;;;;;22.50;102499.00;;;;10528860;27;20739;-77
2022/04/16 12:07:37;;;;;;;7.57;6.82;;;;;22.70;102484.00;;;;10498364;28;20537;-77
2022/04/16 12:12:47;;;;;;;8.38;7.30;;;;;22.70;102499.00;;;;10502994;28;20193;-78
2022/04/16 12:17:51;;;;;;;8.25;7.40;;;;;22.80;102493.00;;;;10485745;28;20193;-77
2022/04/16 12:22:56;;;;;;;8.52;7.00;;;;;23.00;102492.00;;;;10526640;27;20211;-77
2022/04/16 12:28:03;;;;;;;8.35;7.30;;;;;22.60;102490.00;;;;10604090;27;20188;-78
2022/04/16 12:33:12;;;;;;;9.00;8.05;;;;;22.80;102499.00;;;;10537862;28;20200;-77
2022/04/16 12:38:17;;;;;;;7.47;6.75;;;;;22.80;102486.00;;;;10544084;28;20247;-77
2022/04/16 12:43:19;;;;;;;8.63;7.60;;;;;22.90;102486.00;;;;10527754;28;20936;-77
2022/04/16 12:48:21;;;;;;;10.70;7.90;;;;;23.00;102483.00;;;;10545123;28;20199;-77
2022/04/16 12:53:24;;;;;;;8.52;7.63;;;;;23.60;102478.00;;;;10554136;28;20195;-77
2022/04/16 12:58:26;;;;;;;10.38;6.60;;;;;23.50;102487.00;;;;10553230;28;20290;-77
2022/04/16 13:03:29;;;;;;;9.38;7.80;;;;;23.20;102469.00;;;;10497998;28;20300;-77
2022/04/16 13:08:31;;;;;;;8.75;7.85;;;;;23.30;102460.00;;;;10516817;28;20201;-77
2022/04/16 13:13:34;;;;;;;8.40;7.60;;;;;23.40;102457.00;;;;10534976;28;20181;-77
2022/04/16 13:18:36;;;;;;;7.82;6.93;;;;;23.50;102458.00;;;;10501851;28;20612;-77
2022/04/16 13:23:38;;;;;;;7.97;6.60;;;;;24.00;102451.00;;;;10527901;28;20220;-78
2022/04/16 13:28:40;;;;;;;5.97;5.38;;;;;24.70;102441.00;;;;10560232;28;20375;-78
2022/04/16 13:33:41;;;;;;;6.43;5.47;;;;;25.00;102439.00;;;;10562467;28;20198;-77
2022/04/16 13:38:43;;;;;;;6.53;5.63;;;;;26.00;102440.00;;;;10568002;28;20213;-78
2022/04/16 13:43:45;;;;;;;8.27;4.80;;;;;26.90;102432.00;;;;10551132;28;20212;-77
2022/04/16 13:48:51;;;;;;;6.07;5.53;;;;;27.40;102402.00;;;;10535119;28;20212;-77
2022/04/16 13:54:00;;;;;;;6.85;5.30;;;;;29.30;102398.00;;;;10521592;28;20675;-77
2022/04/16 13:59:02;;;;;;;4.78;4.38;;;;;29.30;102400.00;;;;10525508;28;20189;-76
2022/04/16 14:04:04;;;;;;;7.30;4.22;;;;;30.10;102390.00;;;;10517320;28;20682;-77
2022/04/16 14:09:06;;;;;;;4.68;4.28;;;;;30.40;102394.00;;;;10532782;28;20605;-77
2022/04/16 14:14:08;;;;;;;6.32;4.10;;;;;30.60;102376.00;;;;10550085;28;20188;-77
2022/04/16 14:19:11;;;;;;;4.03;3.63;;;;;31.30;102362.00;;;;10533431;28;20720;-78
2022/04/16 14:24:20;;;;;;;4.80;4.25;;;;;31.30;102362.00;;;;10564791;27;20207;-78
2022/04/16 14:29:22;;;;;;;4.55;3.60;;;;;31.60;102369.00;;;;10591782;27;20187;-78
2022/04/16 14:34:24;;;;;;;4.78;4.30;;;;;32.10;102363.00;;;;10546145;27;20220;-77
2022/04/16 14:39:27;;;;;;;4.95;4.53;;;;;32.40;102360.00;;;;10525599;28;20240;-78
2022/04/16 14:44:29;;;;;;;5.40;4.57;;;;;32.20;102361.00;;;;10565358;28;20208;-78
2022/04/16 14:49:30;;;;;;;4.90;4.45;;;;;31.90;102359.00;;;;10565591;28;20208;-78
2022/04/16 14:54:32;;;;;;;4.65;4.18;;;;;32.40;102359.00;;;;10546963;27;20196;-77
2022/04/16 14:59:54;;;;;;;6.07;3.90;;;;;32.20;102362.00;;;;10532009;28;20189;-77
2022/04/16 15:04:56;;;;;;;5.63;4.50;;;;;31.50;102364.00;;;;10506737;28;20209;-77
2022/04/16 15:09:58;;;;;;;5.75;4.15;;;;;30.10;102361.00;;;;10490838;28;20201;-77
2022/04/16 15:15:00;;;;;;;4.50;3.85;;;;;25.80;102373.00;;;;10488920;28;20552;-77
2022/04/16 15:20:03;;;;;;;5.13;4.38;;;;;23.40;102359.00;;;;10522445;28;20177;-77
2022/04/16 15:25:06;;;;;;;4.38;3.90;;;;;21.90;102361.00;;;;10548592;27;20769;-77
2022/04/16 15:30:08;;;;;;;4.60;4.20;;;;;21.20;102352.00;;;;10589224;27;20198;-76
2022/04/16 15:35:10;;;;;;;4.10;3.70;;;;;21.10;102347.00;;;;10588967;27;20192;-78
2022/04/16 15:40:12;;;;;;;4.43;3.85;;;;;20.90;102333.00;;;;10589154;27;20211;-77
2022/04/16 15:45:14;;;;;;;5.72;4.78;;;;;20.90;102333.00;;;;10571799;27;20326;-77
2022/04/16 15:50:16;;;;;;;6.28;4.63;;;;;20.90;102335.00;;;;10555857;27;20196;-77
2022/04/16 15:55:19;;;;;;;5.35;4.25;;;;;20.20;102339.00;;;;10585511;27;20191;-77
2022/04/16 16:00:22;;;;;;;6.90;4.60;;;;;19.60;102343.00;;;;10571169;27;20222;-77
2022/04/16 16:05:24;;;;;;;4.78;4.03;;;;;19.70;102337.00;;;;10527164;28;20208;-77
2022/04/16 16:10:26;;;;;;;5.93;4.80;;;;;20.10;102340.00;;;;10529075;28;20646;-78
2022/04/16 16:15:28;;;;;;;6.05;5.25;;;;;19.50;102338.00;;;;10544989;28;20206;-77
2022/04/16 16:20:30;;;;;;;6.40;5.80;;;;;18.90;102327.00;;;;10518990;28;20193;-77
2022/04/16 16:25:32;;;;;;;6.15;5.55;;;;;18.50;102334.00;;;;10485995;28;20560;-77
2022/04/16 16:30:34;;;;;;;6.03;5.43;;;;;18.30;102318.00;;;;10487016;28;20713;-77
2022/04/16 16:35:36;;;;;;;8.23;7.10;;;;;18.10;102329.00;;;;10519028;28;20295;-77
2022/04/16 16:40:38;;;;;;;8.35;5.97;;;;;18.00;102320.00;;;;10529929;28;20768;-77
2022/04/16 16:45:40;;;;;;;8.85;6.03;;;;;17.90;102320.00;;;;10511067;28;20266;-79
2022/04/16 16:50:42;;;;;;;9.32;6.10;;;;;17.90;102309.00;;;;10545640;28;20226;-76
2022/04/16 16:55:44;;;;;;;8.57;6.18;;;;;17.90;102317.00;;;;10569369;28;20561;-77
2022/04/16 17:00:46;;;;;;;6.65;5.95;;;;;17.80;102317.00;;;;10586858;28;20237;-78
2022/04/16 17:05:49;;;;;;;9.32;6.82;;;;;17.70;102322.00;;;;10545562;28;20219;-77
2022/04/16 17:10:52;;;;;;;8.73;6.88;;;;;17.50;102313.00;;;;10534954;28;20196;-77
2022/04/16 17:21:14;;;;;;;7.22;5.30;;;;;17.20;102322.00;;;;10568849;28;20219;-77
2022/04/16 17:26:17;;;;;;;8.55;5.38;;;;;17.10;102320.00;;;;10568650;28;20735;-76
2022/04/16 17:31:19;;;;;;;5.72;5.00;;;;;17.00;102328.00;;;;10551903;28;20276;-77
2022/04/16 17:36:21;;;;;;;6.07;4.60;;;;;16.80;102330.00;;;;10534817;28;20188;-78
2022/04/16 17:41:24;;;;;;;4.65;4.10;;;;;16.60;102332.00;;;;10569406;27;20212;-77
2022/04/16 17:46:27;;;;;;;6.70;4.20;;;;;16.50;102328.00;;;;10609917;27;20239;-77
2022/04/16 17:51:29;;;;;;;5.73;4.50;;;;;16.30;102335.00;;;;10601403;27;20650;-77
2022/04/16 17:56:31;;;;;;;5.73;4.80;;;;;16.20;102331.00;;;;10575735;27;20194;-77
2022/04/16 18:01:33;;;;;;;6.27;4.40;;;;;16.00;102333.00;;;;10592820;27;20256;-78
2022/04/16 18:06:35;;;;;;;4.97;3.90;;;;;15.80;102332.00;;;;10560900;28;20239;-77
2022/04/16 18:11:38;;;;;;;4.87;3.90;;;;;15.70;102343.00;;;;10534525;28;20185;-78
2022/04/16 18:16:40;;;;;;;6.10;3.73;;;;;15.50;102336.00;;;;10533047;28;20220;-78
2022/04/16 18:21:43;;;;;;;4.77;3.47;;;;;15.20;102343.00;;;;10559946;27;20539;-77
2022/04/16 18:26:45;;;;;;;4.27;3.43;;;;;15.00;102345.00;;;;10574790;27;20286;-78
2022/04/16 18:31:48;;;;;;;7.37;3.37;;;;;14.70;102350.00;;;;10547958;28;20720;-78
2022/04/16 18:36:58;;;;;;;4.63;3.00;;;;;14.50;102366.00;;;;10523764;28;20192;-78
2022/04/16 18:42:01;;;;;;;4.60;3.30;;;;;14.30;102366.00;;;;10490602;28;20216;-77
2022/04/16 18:47:04;;;;;;;6.23;3.27;;;;;14.10;102368.00;;;;10490950;28;20217;-77
2022/04/16 18:52:06;;;;;;;3.47;3.00;;;;;13.80;102373.00;;;;10551768;27;20202;-77
2022/04/16 18:57:12;;;;;;;3.93;3.03;;;;;13.60;102377.00;;;;10557337;27;20184;-78
2022/04/16 19:07:35;;;;;;;7.73;4.10;;;;;13.30;102390.00;;;;10546455;28;20667;-78
2022/04/16 19:12:36;;;;;;;8.50;5.13;;;;;13.20;102400.00;;;;10531243;28;20261;-78
2022/04/16 19:17:38;;;;;;;6.57;4.70;;;;;13.00;102394.00;;;;10531851;28;20188;-78
2022/04/16 19:22:40;;;;;;;9.20;5.40;;;;;12.80;102382.00;;;;10550202;27;20193;-78
2022/04/16 19:27:42;;;;;;;5.90;4.13;;;;;12.70;102389.00;;;;10472364;28;20209;-78
2022/04/16 19:32:44;;;;;;;9.70;5.33;;;;;12.60;102397.00;;;;10475333;28;20200;-78
2022/04/16 19:37:46;;;;;;;5.13;4.30;;;;;12.40;102390.00;;;;10547083;28;20184;-78
2022/04/16 19:42:48;;;;;;;5.27;3.80;;;;;12.20;102391.00;;;;10546966;28;20188;-78
2022/04/16 19:47:50;;;;;;;5.70;4.70;;;;;12.10;102397.00;;;;10514522;28;20220;-78
2022/04/16 19:52:52;;;;;;;7.57;4.40;;;;;11.80;102400.00;;;;10524537;28;20826;-78
2022/04/16 19:57:54;;;;;;;5.33;4.27;;;;;11.60;102400.00;;;;10502154;28;20226;-77
2022/04/16 20:02:56;;;;;;;5.67;4.37;;;;;11.40;102401.00;;;;10504828;28;20203;-78
2022/04/16 20:13:37;;;;;;;5.17;4.33;;;;;11.10;102389.00;;;;10504424;28;20198;-78
2022/04/16 20:18:39;;;;;;;6.27;4.67;;;;;11.00;102389.00;;;;10504112;28;20196;-78
2022/04/16 20:23:44;;;;;;;7.63;5.27;;;;;10.90;102393.00;;;;10529963;27;20237;-78
2022/04/16 20:28:47;;;;;;;12.43;7.73;;;;;11.00;102389.00;;;;10518854;28;20211;-77
2022/04/16 20:33:49;;;;;;;11.67;7.70;;;;;11.20;102389.00;;;;10493272;28;20208;-77
2022/04/16 20:38:50;;;;;;;7.13;4.90;;;;;11.20;102385.00;;;;10486163;28;20540;-77
2022/04/16 20:49:17;;;;;;;7.27;5.40;;;;;11.10;102383.00;;;;10493804;28;20212;-78
2022/04/16 20:54:20;;;;;;;8.17;5.80;;;;;11.00;102370.00;;;;10556188;28;20198;-78
2022/04/16 20:59:22;;;;;;;9.20;5.93;;;;;11.00;102369.00;;;;10569868;28;20248;-78
2022/04/16 21:04:24;;;;;;;8.03;6.07;;;;;11.00;102362.00;;;;10556650;28;20204;-78
2022/04/16 21:09:26;;;;;;;9.70;6.43;;;;;10.90;102366.00;;;;10505890;28;20295;-77
2022/04/16 21:14:28;;;;;;;12.53;6.73;;;;;10.90;102362.00;;;;10485866;28;20215;-78
2022/04/16 21:19:30;;;;;;;8.30;6.53;;;;;10.90;102363.00;;;;10469427;28;20200;-78
2022/04/16 21:24:32;;;;;;;8.87;6.40;;;;;10.80;102359.00;;;;10501744;28;20738;-77
2022/04/16 21:29:34;;;;;;;11.20;6.73;;;;;10.70;102364.00;;;;10486218;28;20193;-78
2022/04/16 21:34:36;;;;;;;8.90;6.13;;;;;10.70;102350.00;;;;10468801;28;20192;-77
2022/04/16 21:39:38;;;;;;;10.43;6.53;;;;;10.70;102351.00;;;;10474935;28;20583;-77
2022/04/16 21:44:40;;;;;;;11.23;6.60;;;;;10.70;102350.00;;;;10552330;28;20244;-77
2022/04/16 21:49:42;;;;;;;8.97;6.10;;;;;10.70;102352.00;;;;10540005;28;20207;-78
2022/04/16 21:54:44;;;;;;;10.30;6.47;;;;;10.60;102345.00;;;;10547021;27;20199;-77
2022/04/16 21:59:46;;;;;;;8.37;5.67;;;;;10.50;102342.00;;;;10533849;28;20226;-78
2022/04/16 22:04:48;;;;;;;8.97;6.23;;;;;10.40;102351.00;;;;10531639;28;20731;-77
2022/04/16 22:09:49;;;;;;;9.33;6.23;;;;;10.20;102348.00;;;;10532226;28;20192;-77
2022/04/16 22:14:52;;;;;;;9.67;6.10;;;;;10.10;102346.00;;;;10529034;28;20184;-78
2022/04/16 22:19:54;;;;;;;9.23;6.20;;;;;9.90;102348.00;;;;10509246;27;20196;-78
2022/04/16 22:24:56;;;;;;;7.03;5.93;;;;;9.80;102344.00;;;;10527810;27;20211;-78
2022/04/16 22:29:59;;;;;;;8.87;5.60;;;;;9.60;102349.00;;;;10538133;28;20193;-78
2022/04/16 22:35:01;;;;;;;9.63;5.53;;;;;9.50;102357.00;;;;10516824;28;20188;-79
2022/04/16 22:45:25;;;;;;;6.93;5.30;;;;;9.60;102355.00;;;;10528031;28;20212;-78
2022/04/16 22:50:28;;;;;;;6.17;4.17;;;;;9.60;102342.00;;;;10496366;28;20195;-78
2022/04/16 22:55:31;;;;;;;7.67;5.00;;;;;9.60;102340.00;;;;10557666;28;20189;-78
2022/04/16 23:00:37;;;;;;;8.43;4.30;;;;;9.70;102348.00;;;;10513014;28;20204;-78
2022/04/16 23:05:39;;;;;;;6.07;4.23;;;;;9.60;102333.00;;;;10488974;28;20209;-79
2022/04/16 23:10:43;;;;;;;6.33;4.37;;;;;9.50;102337.00;;;;10522273;28;20777;-77
2022/04/16 23:21:07;;;;;;;13.00;5.00;;;;;9.30;102332.00;;;;10527059;28;20292;-79
2022/04/16 23:26:09;;;;;;;5.87;4.57;;;;;9.10;102333.00;;;;10527184;28;20261;-78
2022/04/16 23:31:11;;;;;;;6.00;4.40;;;;;8.90;102332.00;;;;10525463;27;20674;-78
2022/04/16 23:36:17;;;;;;;5.70;4.30;;;;;8.70;102326.00;;;;10523256;28;20204;-78
2022/04/16 23:41:19;;;;;;;6.80;4.30;;;;;8.50;102318.00;;;;10530796;28;20211;-78
2022/04/16 23:51:55;;;;;;;6.77;5.10;;;;;7.90;102329.00;;;;10506500;28;20718;-78
2022/04/16 23:57:01;;;;;;;10.60;5.63;;;;;7.70;102330.00;;;;10516892;28;20230;-79
